createdAt,value
2023-05-02T00:00:15.800Z,18.50
2023-05-02T00:02:42.702Z,26.58
2023-05-02T00:05:41.237Z,22.48
2023-05-02T00:10:33.918Z,22.38
2023-05-02T00:13:00.643Z,20.42
2023-05-02T00:17:55.792Z,20.30
2023-05-02T00:20:22.592Z,27.80
2023-05-02T00:22:49.311Z,25.45
2023-05-02T00:25:17.257Z,25.00
2023-05-02T00:27:46.672Z,28.15
2023-05-02T00:32:40.821Z,35.25
2023-05-02T00:35:08.160Z,26.27
2023-05-02T00:37:34.852Z,24.73
2023-05-02T00:40:02.126Z,24.98
2023-05-02T00:42:31.767Z,23.85
2023-05-02T00:47:24.044Z,27.00
2023-05-02T00:49:50.859Z,21.20
2023-05-02T00:52:17.540Z,24.42
2023-05-02T00:54:44.468Z,28.13
2023-05-02T00:57:11.258Z,21.60
2023-05-02T00:59:37.970Z,30.63
2023-05-02T01:02:34.560Z,22.17
2023-05-02T01:07:57.504Z,23.17
2023-05-02T01:10:30.986Z,28.20
2023-05-02T01:12:57.632Z,35.03
2023-05-02T01:15:24.762Z,23.10
2023-05-02T01:17:52.454Z,23.52
2023-05-02T01:20:21.707Z,21.50
2023-05-02T01:22:48.699Z,29.30
2023-05-02T01:25:37.105Z,28.30
2023-05-02T01:28:29.276Z,31.98
2023-05-02T01:30:56.968Z,28.80
2023-05-02T01:33:25.602Z,28.55
2023-05-02T01:35:52.214Z,26.98
2023-05-02T01:38:19.704Z,26.13
2023-05-02T01:40:47.175Z,24.63
2023-05-02T01:43:14.672Z,28.45
2023-05-02T01:45:43.160Z,31.92
2023-05-02T01:48:10.934Z,28.75
2023-05-02T01:50:38.244Z,31.27
2023-05-02T01:53:05.137Z,29.40
2023-05-02T01:55:33.624Z,23.20
2023-05-02T01:58:01.212Z,28.80
2023-05-02T02:00:29.249Z,26.13
2023-05-02T02:02:57.199Z,30.60
2023-05-02T02:05:24.635Z,25.95
2023-05-02T02:07:51.450Z,25.15
2023-05-02T02:10:18.482Z,27.17
2023-05-02T02:12:53.299Z,26.20
2023-05-02T02:15:21.964Z,31.02
2023-05-02T02:17:55.508Z,21.13
2023-05-02T02:20:22.540Z,21.23
2023-05-02T02:22:49.861Z,25.05
2023-05-02T02:25:17.320Z,28.02
2023-05-02T02:27:44.213Z,30.30
2023-05-02T02:30:11.283Z,25.52
2023-05-02T02:32:38.017Z,28.95
2023-05-02T02:35:05.743Z,26.67
2023-05-02T02:37:37.905Z,26.20
2023-05-02T02:40:21.933Z,22.52
2023-05-02T02:45:13.953Z,23.35
2023-05-02T02:50:24.586Z,27.33
2023-05-02T02:53:00.902Z,27.70
2023-05-02T02:58:02.076Z,27.15
2023-05-02T03:00:29.131Z,20.48
2023-05-02T03:02:56.937Z,22.40
2023-05-02T03:05:24.009Z,20.33
2023-05-02T03:07:51.426Z,20.13
2023-05-02T03:10:22.068Z,19.92
2023-05-02T03:15:31.559Z,24.33
2023-05-02T03:20:24.773Z,18.30
2023-05-02T03:22:52.350Z,19.02
2023-05-02T03:25:18.987Z,23.70
2023-05-02T03:27:48.672Z,22.23
2023-05-02T03:30:15.664Z,22.35
2023-05-02T03:35:08.614Z,21.80
2023-05-02T03:37:40.870Z,18.92
2023-05-02T03:40:07.918Z,18.95
2023-05-02T03:42:39.982Z,18.08
2023-05-02T03:45:07.376Z,24.98
2023-05-02T03:47:34.407Z,18.45
2023-05-02T03:50:02.196Z,14.88
2023-05-02T03:54:56.080Z,21.65
2023-05-02T03:57:23.437Z,16.98
2023-05-02T03:59:50.502Z,15.27
2023-05-02T04:02:26.237Z,17.33
2023-05-02T04:04:53.131Z,19.15
2023-05-02T04:07:22.298Z,17.38
2023-05-02T04:09:48.952Z,19.50
2023-05-02T04:12:15.932Z,21.13
2023-05-02T04:14:46.285Z,16.52
2023-05-02T04:17:13.851Z,16.23
2023-05-02T04:19:51.541Z,16.50
2023-05-02T04:22:20.636Z,17.70
2023-05-02T04:24:52.251Z,25.40
2023-05-02T04:27:18.893Z,24.98
2023-05-02T04:29:49.472Z,17.52
2023-05-02T04:32:16.195Z,19.15
2023-05-02T04:34:48.884Z,19.05
2023-05-02T04:47:02.012Z,17.25
2023-05-02T04:49:28.836Z,16.50
2023-05-02T05:04:05.928Z,25.83
2023-05-02T05:06:32.883Z,26.58
2023-05-02T05:11:29.783Z,30.05
2023-05-02T05:13:57.327Z,33.58
2023-05-02T05:21:16.803Z,19.17
2023-05-02T05:23:46.305Z,18.38
2023-05-02T05:26:17.161Z,20.08
2023-05-02T05:28:44.137Z,20.95
2023-05-02T05:36:06.961Z,21.73
2023-05-02T05:38:34.796Z,29.88
2023-05-02T05:41:03.296Z,22.48
2023-05-02T05:43:30.131Z,22.85
2023-05-02T05:45:57.632Z,24.15
2023-05-02T05:48:24.729Z,23.08
2023-05-02T05:50:54.611Z,32.78
2023-05-02T05:53:21.714Z,19.05
2023-05-02T05:55:49.656Z,24.17
2023-05-02T05:58:18.234Z,25.20
2023-05-02T06:00:45.791Z,30.90
2023-05-02T06:03:12.684Z,22.90
2023-05-02T06:05:40.898Z,19.10
2023-05-02T06:08:08.006Z,25.20
2023-05-02T06:10:34.845Z,20.15
2023-05-02T06:13:01.528Z,19.98
2023-05-02T06:15:28.179Z,11.52
2023-05-02T06:17:55.025Z,19.63
2023-05-02T06:20:21.821Z,21.90
2023-05-02T06:25:13.953Z,13.77
2023-05-02T06:27:40.687Z,11.45
2023-05-02T06:30:07.676Z,9.18
2023-05-02T06:32:34.397Z,10.77
2023-05-02T06:35:01.169Z,6.53
2023-05-02T06:37:27.817Z,5.68
2023-05-02T06:39:54.484Z,6.53
2023-05-02T06:42:21.111Z,5.88
2023-05-02T06:44:47.774Z,3.40
2023-05-02T06:47:14.691Z,3.47
2023-05-02T06:49:41.510Z,4.07
2023-05-02T06:52:08.092Z,3.13
2023-05-02T06:54:34.727Z,3.22
2023-05-02T06:57:02.273Z,4.57
2023-05-02T06:59:28.971Z,5.45
2023-05-02T07:01:55.663Z,4.93
2023-05-02T07:04:22.543Z,2.40
2023-05-02T07:06:49.350Z,3.05
2023-05-02T07:09:16.098Z,5.47
2023-05-02T07:11:42.736Z,4.97
2023-05-02T07:14:09.399Z,7.93
2023-05-02T07:16:36.207Z,5.88
2023-05-02T07:19:04.738Z,4.03
2023-05-02T07:28:57.724Z,6.53
2023-05-02T07:31:24.418Z,7.07
2023-05-02T07:33:51.123Z,6.90
2023-05-02T07:36:18.207Z,8.77
2023-05-02T07:38:44.909Z,9.02
2023-05-02T07:41:13.493Z,12.10
2023-05-02T07:43:40.150Z,7.07
2023-05-02T07:46:07.028Z,9.27
2023-05-02T07:48:34.984Z,11.43
2023-05-02T07:51:08.366Z,12.88
2023-05-02T07:56:01.193Z,14.52
2023-05-02T07:58:28.238Z,10.65
2023-05-02T08:03:20.587Z,13.75
2023-05-02T08:05:47.569Z,13.60
2023-05-02T08:13:05.149Z,17.30
2023-05-02T08:15:31.856Z,14.25
2023-05-02T08:17:59.929Z,12.27
2023-05-02T08:20:26.582Z,11.73
2023-05-02T08:35:02.731Z,12.52
2023-05-02T08:39:54.972Z,18.48
2023-05-02T08:42:21.899Z,12.07
2023-05-02T08:44:48.900Z,10.27
2023-05-02T08:49:42.441Z,15.07
2023-05-02T08:55:12.663Z,18.20
2023-05-02T08:57:39.863Z,11.02
2023-05-02T09:00:08.126Z,16.33
2023-05-02T09:02:53.540Z,13.02
2023-05-02T09:05:23.174Z,12.10
2023-05-02T09:07:51.463Z,11.82
2023-05-02T09:12:43.661Z,16.67
2023-05-02T09:15:10.694Z,14.68
2023-05-02T09:17:44.256Z,14.88
2023-05-02T09:20:11.848Z,11.25
2023-05-02T09:22:39.342Z,15.02
2023-05-02T09:25:07.047Z,11.63
2023-05-02T09:27:52.841Z,15.63
2023-05-02T09:32:47.552Z,15.45
2023-05-02T09:35:14.470Z,10.32
2023-05-02T09:37:41.147Z,8.98
2023-05-02T09:40:09.359Z,9.07
2023-05-02T09:42:36.646Z,14.32
2023-05-02T09:47:28.980Z,8.88
2023-05-02T09:49:55.685Z,6.80
2023-05-02T09:52:22.325Z,7.55
2023-05-02T09:54:52.967Z,8.60
2023-05-02T09:57:19.704Z,6.53
2023-05-02T10:02:22.063Z,7.25
2023-05-02T10:04:49.163Z,5.70
2023-05-02T10:09:43.781Z,6.63
2023-05-02T10:12:14.188Z,9.05
2023-05-02T10:14:44.030Z,6.75
2023-05-02T10:17:23.316Z,8.32
2023-05-02T10:20:06.866Z,8.52
2023-05-02T10:22:34.047Z,6.00
2023-05-02T10:25:02.153Z,6.47
2023-05-02T10:30:02.479Z,5.15
2023-05-02T10:32:29.658Z,5.38
2023-05-02T10:35:03.357Z,6.10
2023-05-02T10:37:30.497Z,7.55
2023-05-02T10:39:57.166Z,8.30
2023-05-02T10:44:50.552Z,5.75
2023-05-02T10:47:24.136Z,3.20
2023-05-02T10:49:59.710Z,5.82
2023-05-02T10:52:38.223Z,5.10
2023-05-02T10:55:15.917Z,6.82
2023-05-02T10:58:00.849Z,5.68
2023-05-02T11:00:29.558Z,5.93
2023-05-02T11:02:56.656Z,5.15
2023-05-02T11:05:24.633Z,5.45
2023-05-02T11:08:11.252Z,4.68
2023-05-02T11:10:37.957Z,6.07
2023-05-02T11:13:04.669Z,4.88
2023-05-02T11:15:33.345Z,5.55
2023-05-02T11:18:03.240Z,7.00
2023-05-02T11:20:30.490Z,2.95
2023-05-02T11:22:58.357Z,4.72
2023-05-02T11:25:31.066Z,4.35
2023-05-02T11:27:57.938Z,2.55
2023-05-02T11:33:28.574Z,6.03
2023-05-02T11:35:58.110Z,5.18
2023-05-02T11:58:34.863Z,5.22
2023-05-02T12:01:14.826Z,3.38
2023-05-02T12:03:41.936Z,4.15
2023-05-02T12:06:12.986Z,4.47
2023-05-02T12:08:40.498Z,2.85
2023-05-02T12:13:32.854Z,4.60
2023-05-02T12:15:59.461Z,2.38
2023-05-02T12:18:27.204Z,4.82
2023-05-02T12:20:54.766Z,3.20
2023-05-02T12:23:22.196Z,5.13
2023-05-02T12:25:49.372Z,4.45
2023-05-02T12:28:18.084Z,4.72
2023-05-02T12:30:44.871Z,2.97
2023-05-02T12:40:46.771Z,5.03
2023-05-02T12:43:13.570Z,3.22
2023-05-02T12:45:40.441Z,9.80
2023-05-02T12:48:22.322Z,5.03
2023-05-02T12:55:41.760Z,4.75
2023-05-02T12:58:13.492Z,5.57
2023-05-02T13:00:45.618Z,5.75
2023-05-02T13:03:13.962Z,5.05
2023-05-02T13:05:40.829Z,4.03
2023-05-02T13:08:07.494Z,7.00
2023-05-02T13:10:34.104Z,3.40
2023-05-02T13:13:01.738Z,6.47
2023-05-02T13:15:28.846Z,8.57
2023-05-02T13:17:55.743Z,7.93
2023-05-02T13:20:22.460Z,4.68
2023-05-02T13:22:49.141Z,4.72
2023-05-02T13:25:16.191Z,6.45
2023-05-02T13:27:43.425Z,4.32
2023-05-02T13:32:35.987Z,4.57
2023-05-02T13:35:03.783Z,8.25
2023-05-02T13:37:30.654Z,5.15
2023-05-02T13:39:57.455Z,4.53
2023-05-02T13:42:24.095Z,9.25
2023-05-02T13:44:50.894Z,7.50
2023-05-02T13:47:17.527Z,5.43
2023-05-02T13:49:44.100Z,6.15
2023-05-02T13:52:10.923Z,7.45
2023-05-02T13:54:37.683Z,9.13
2023-05-02T13:57:05.618Z,5.07
2023-05-02T13:59:32.450Z,6.95
2023-05-02T14:01:59.115Z,8.68
2023-05-02T14:04:25.803Z,6.40
2023-05-02T14:06:52.634Z,6.05
2023-05-02T14:09:19.418Z,5.43
2023-05-02T14:11:47.370Z,9.70
2023-05-02T14:16:40.006Z,8.85
2023-05-02T14:19:06.794Z,9.52
2023-05-02T14:21:33.434Z,10.23
2023-05-02T14:28:51.846Z,8.82
2023-05-02T14:31:18.602Z,15.63
2023-05-02T14:33:46.037Z,7.95
2023-05-02T14:36:12.809Z,9.98
2023-05-02T14:38:39.569Z,12.30
2023-05-02T14:41:07.070Z,10.65
2023-05-02T14:43:33.754Z,11.05
2023-05-02T14:46:00.705Z,10.73
2023-05-02T14:48:27.425Z,14.57
2023-05-02T14:50:54.098Z,13.00
2023-05-02T14:55:47.776Z,12.75
2023-05-02T14:58:20.523Z,11.95
2023-05-02T15:00:47.545Z,6.63
2023-05-02T15:03:14.441Z,11.20
2023-05-02T15:05:41.914Z,6.22
2023-05-02T15:15:47.244Z,12.55
2023-05-02T15:18:14.184Z,13.55
2023-05-02T15:20:41.110Z,11.75
2023-05-02T15:23:07.737Z,10.65
2023-05-02T15:25:34.401Z,9.63
2023-05-02T15:28:02.639Z,11.30
2023-05-02T15:30:29.259Z,10.35
2023-05-02T15:32:56.188Z,5.20
2023-05-02T15:35:23.582Z,8.77
2023-05-02T15:37:50.334Z,10.45
2023-05-02T15:45:08.304Z,8.57
2023-05-02T15:47:35.206Z,9.45
2023-05-02T15:50:04.519Z,9.40
2023-05-02T15:52:31.415Z,10.90
2023-05-02T15:57:27.287Z,7.57
2023-05-02T15:59:56.844Z,10.43
2023-05-02T16:02:23.722Z,7.68
2023-05-02T16:04:50.461Z,7.97
2023-05-02T16:07:17.160Z,10.60
2023-05-02T16:09:43.905Z,7.93
2023-05-02T16:12:11.283Z,7.43
2023-05-02T16:14:37.979Z,11.43
2023-05-02T16:19:30.788Z,7.72
2023-05-02T16:21:57.564Z,7.82
2023-05-02T16:29:15.211Z,12.10
2023-05-02T16:31:44.348Z,8.23
2023-05-02T16:34:11.391Z,8.50
2023-05-02T16:36:38.047Z,11.55
2023-05-02T16:39:04.740Z,6.57
2023-05-02T16:41:31.498Z,7.28
2023-05-02T16:43:58.404Z,7.75
2023-05-02T16:46:25.210Z,7.28
2023-05-02T16:48:51.945Z,5.25
2023-05-02T16:51:18.657Z,4.75
2023-05-02T16:53:46.367Z,6.13
2023-05-02T16:56:20.075Z,5.10
2023-05-02T17:01:12.868Z,3.65
2023-05-02T17:03:40.351Z,4.82
2023-05-02T17:06:07.520Z,3.53
2023-05-02T17:08:34.435Z,6.47
2023-05-02T17:11:01.592Z,6.88
2023-05-02T17:13:28.439Z,7.22
2023-05-02T17:15:55.973Z,6.40
2023-05-02T17:18:22.866Z,6.93
2023-05-02T17:20:52.308Z,7.97
2023-05-02T17:23:19.274Z,6.10
2023-05-02T17:25:46.677Z,5.07
2023-05-02T17:30:39.037Z,3.13
2023-05-02T17:33:06.056Z,3.22
2023-05-02T17:35:33.154Z,2.58
2023-05-02T17:38:00.010Z,2.40
2023-05-02T17:40:26.985Z,2.78
2023-05-02T17:42:53.734Z,2.78
2023-05-02T17:45:20.505Z,3.08
2023-05-02T17:47:47.498Z,3.05
2023-05-02T17:52:42.568Z,3.85
2023-05-02T17:55:09.629Z,4.63
2023-05-02T17:57:36.469Z,2.90
2023-05-02T18:00:08.186Z,4.05
2023-05-02T18:02:38.481Z,2.78
2023-05-02T18:05:06.968Z,3.58
2023-05-02T18:14:53.269Z,5.68
2023-05-02T18:19:50.477Z,2.70
2023-05-02T18:22:20.165Z,2.33
2023-05-02T18:27:12.775Z,5.47
2023-05-02T18:29:39.555Z,6.50
2023-05-02T18:34:37.748Z,6.07
2023-05-02T18:37:05.900Z,5.38
2023-05-02T18:41:59.025Z,8.32
2023-05-02T18:44:25.726Z,8.18
2023-05-02T18:46:52.551Z,7.57
2023-05-02T18:49:19.696Z,9.77
2023-05-02T18:51:48.024Z,14.07
2023-05-02T18:56:41.057Z,10.88
2023-05-02T18:59:08.342Z,15.63
2023-05-02T19:01:35.237Z,17.15
2023-05-02T19:04:03.005Z,14.70
2023-05-02T19:06:31.618Z,12.45
2023-05-02T19:09:00.721Z,14.35
2023-05-02T19:11:27.441Z,17.38
2023-05-02T19:13:58.837Z,20.63
2023-05-02T19:16:27.318Z,16.58
2023-05-02T19:19:00.580Z,18.15
2023-05-02T19:23:53.642Z,16.20
2023-05-02T19:26:20.502Z,19.77
2023-05-02T19:43:33.197Z,20.88
2023-05-02T19:45:59.890Z,21.60
2023-05-02T19:48:26.614Z,23.15
2023-05-02T19:50:53.700Z,24.17
2023-05-02T19:53:20.447Z,26.05
2023-05-02T20:00:38.690Z,21.27
2023-05-02T20:05:32.302Z,25.73
2023-05-02T20:07:59.612Z,22.80
2023-05-02T20:15:17.286Z,23.33
2023-05-02T20:17:44.061Z,25.27
2023-05-02T20:20:11.572Z,20.33
2023-05-02T20:22:41.135Z,21.25
2023-05-02T20:25:10.413Z,17.33
2023-05-02T20:27:37.198Z,18.15
2023-05-02T20:30:04.126Z,14.90
2023-05-02T20:32:31.227Z,19.77
2023-05-02T20:34:58.636Z,18.48
2023-05-02T20:37:25.848Z,15.77
2023-05-02T20:42:23.418Z,11.38
2023-05-02T20:44:57.288Z,11.63
2023-05-02T20:47:25.297Z,10.82
2023-05-02T20:49:56.544Z,11.05
2023-05-02T20:54:49.096Z,8.65
2023-05-02T20:57:16.682Z,10.10
2023-05-02T21:09:28.899Z,8.60
2023-05-02T21:11:55.665Z,10.85
2023-05-02T21:16:51.525Z,10.95
2023-05-02T21:19:18.820Z,13.52
2023-05-02T21:24:11.117Z,11.98
2023-05-02T21:26:46.979Z,10.20
2023-05-02T21:29:15.078Z,10.73
2023-05-02T21:31:41.859Z,8.70
2023-05-02T21:34:08.482Z,11.38
2023-05-02T21:36:35.140Z,9.95
2023-05-02T21:39:01.735Z,10.50
2023-05-02T21:43:54.290Z,11.02
2023-05-02T21:46:21.267Z,10.15
2023-05-02T21:48:48.485Z,12.57
2023-05-02T21:51:15.233Z,9.57
2023-05-02T21:53:42.283Z,10.00
2023-05-02T21:56:11.077Z,10.20
2023-05-02T21:58:37.753Z,9.95
2023-05-02T22:01:04.726Z,10.63
2023-05-02T22:10:51.876Z,12.98
2023-05-02T22:13:18.502Z,9.82
2023-05-02T22:15:46.234Z,9.10
2023-05-02T22:20:40.526Z,11.40
2023-05-02T22:23:07.337Z,12.65
2023-05-02T22:25:35.982Z,11.63
2023-05-02T22:28:06.845Z,12.48
2023-05-02T22:30:34.190Z,9.70
2023-05-02T22:42:43.770Z,14.43
2023-05-02T22:45:10.832Z,12.60
2023-05-02T22:50:05.197Z,16.35
2023-05-02T22:52:37.905Z,16.50
2023-05-02T22:55:05.919Z,14.50
2023-05-02T22:57:32.753Z,18.15
2023-05-02T22:59:59.489Z,16.85
2023-05-02T23:04:52.204Z,18.05
2023-05-02T23:07:19.180Z,17.77
2023-05-02T23:12:11.492Z,17.70
2023-05-02T23:14:38.179Z,17.00
2023-05-02T23:19:30.346Z,20.70
2023-05-02T23:27:22.105Z,17.35
2023-05-02T23:29:49.211Z,17.20
2023-05-02T23:32:16.738Z,23.48
2023-05-02T23:34:43.955Z,18.25
2023-05-02T23:37:11.616Z,19.27
2023-05-02T23:39:38.272Z,18.35
2023-05-02T23:42:05.112Z,22.40
2023-05-02T23:44:31.727Z,18.95
2023-05-02T23:46:59.158Z,17.13
2023-05-02T23:49:26.225Z,23.15
2023-05-02T23:51:52.912Z,25.02
2023-05-02T23:56:44.944Z,32.05
2023-05-02T23:59:11.641Z,26.30
